Holgate, Ohio
Current Conditions -  °F | °C
As of 11:53 AM on Sunday 21 Dec 2014 (Local Time) from KDFI Reporting Station
Haze Haze  
Wind Chill: 26°   Ceiling: 6000
Heat Index: 33°   Visibility: 6mi
Dew Point: 26°   Wind: 8mph
Humidity: 75%   Direction: 190°S
Pressure: 30.29"   Gusts: NA
Location:  41.25°N, 84.13°W
Report Text: KDFI 211653Z AUTO 19007KT 6SM HZ OVC060 01/M03 A3029 RMK AO2 SLP267 T00061033 TSNO
Loading
Personal Weather Stations






























Interactive Weather Map New forecast layout! Learn more

10-Day Weather Forecast

Advertisements
Track Severe Weather on mobile